createdAt,value
2022-12-14T00:00:39.449Z,17.87
2022-12-14T00:41:13.542Z,20.87
2022-12-14T00:44:25.608Z,17.30
2022-12-14T00:47:40.711Z,20.47
2022-12-14T00:50:49.604Z,19.27
2022-12-14T00:53:49.620Z,17.90
2022-12-14T00:57:15.598Z,20.83
2022-12-14T01:00:17.621Z,18.43
2022-12-14T01:03:31.171Z,18.37
2022-12-14T01:06:42.590Z,18.37
2022-12-14T01:09:54.683Z,15.20
2022-12-14T01:13:08.659Z,20.17
2022-12-14T01:16:35.680Z,16.80
2022-12-14T01:19:38.646Z,17.20
2022-12-14T01:23:03.693Z,15.30
2022-12-14T01:26:03.692Z,18.30
2022-12-14T01:29:29.648Z,17.57
2022-12-14T01:32:29.789Z,20.70
2022-12-14T01:35:41.692Z,19.63
2022-12-14T01:38:41.756Z,21.03
2022-12-14T01:42:05.684Z,18.17
2022-12-14T01:45:19.756Z,21.50
2022-12-14T01:48:31.762Z,18.17
2022-12-14T01:51:43.747Z,16.97
2022-12-14T01:55:07.773Z,18.37
2022-12-14T01:58:31.722Z,20.77
2022-12-14T02:01:59.898Z,22.73
2022-12-14T02:05:23.892Z,19.63
2022-12-14T02:08:35.827Z,14.67
2022-12-14T02:12:00.747Z,17.03
2022-12-14T02:15:12.793Z,19.10
2022-12-14T02:18:39.895Z,16.13
2022-12-14T02:21:53.883Z,16.70
2022-12-14T02:25:21.858Z,17.70
2022-12-14T02:28:49.831Z,19.37
2022-12-14T02:32:15.819Z,17.90
2022-12-14T02:35:28.814Z,16.83
2022-12-14T02:38:53.868Z,16.93
2022-12-14T02:42:05.873Z,18.40
2022-12-14T02:45:30.902Z,18.70
2022-12-14T02:48:44.960Z,18.10
2022-12-14T02:52:09.922Z,17.67
2022-12-14T02:55:40.937Z,19.17
2022-12-14T02:59:23.920Z,19.33
2022-12-14T03:02:36.025Z,17.30
2022-12-14T03:06:02.965Z,16.50
2022-12-14T03:09:17.998Z,16.10
2022-12-14T03:12:41.997Z,15.83
2022-12-14T03:15:57.034Z,15.03
2022-12-14T03:19:21.986Z,18.57
2022-12-14T03:22:34.985Z,19.80
2022-12-14T03:25:59.072Z,16.63
2022-12-14T03:29:11.034Z,22.10
2022-12-14T03:32:38.031Z,15.27
2022-12-14T03:35:50.106Z,19.03
2022-12-14T03:39:16.106Z,20.07
2022-12-14T03:42:28.111Z,20.23
2022-12-14T03:45:53.102Z,19.53
2022-12-14T03:49:11.087Z,19.03
2022-12-14T03:52:36.164Z,19.50
2022-12-14T03:55:50.099Z,18.90
2022-12-14T03:59:16.158Z,15.70
2022-12-14T04:02:28.251Z,15.53
2022-12-14T04:05:54.299Z,19.20
2022-12-14T04:09:06.141Z,18.17
2022-12-14T04:12:37.503Z,18.20
2022-12-14T04:15:55.075Z,16.70
2022-12-14T04:19:19.165Z,19.23
2022-12-14T04:22:31.160Z,15.90
2022-12-14T04:26:03.070Z,20.83
2022-12-14T04:29:22.861Z,16.87
2022-12-14T04:32:52.260Z,15.13
2022-12-14T04:36:04.255Z,20.73
2022-12-14T04:39:28.256Z,17.67
2022-12-14T04:42:40.274Z,15.63
2022-12-14T04:46:07.319Z,18.33
2022-12-14T04:49:19.368Z,21.70
2022-12-14T04:52:43.269Z,18.60
2022-12-14T04:55:56.301Z,19.97
2022-12-14T04:59:20.349Z,16.47
2022-12-14T05:02:34.431Z,15.07
2022-12-14T05:06:02.361Z,18.30
2022-12-14T05:09:20.306Z,18.77
2022-12-14T05:12:44.414Z,21.23
2022-12-14T05:15:56.313Z,15.27
2022-12-14T05:19:26.459Z,19.67
2022-12-14T05:22:33.337Z,19.80
2022-12-14T05:25:45.391Z,16.57
2022-12-14T05:28:50.246Z,16.30
2022-12-14T05:32:09.452Z,18.20
2022-12-14T05:35:25.428Z,18.27
2022-12-14T05:38:37.395Z,17.30
2022-12-14T05:41:37.497Z,15.80
2022-12-14T05:44:49.431Z,14.93
2022-12-14T05:47:49.495Z,20.20
2022-12-14T05:51:15.538Z,19.40
2022-12-14T05:54:15.445Z,16.03
2022-12-14T05:57:27.458Z,15.50
2022-12-14T06:00:28.480Z,15.40
2022-12-14T06:03:52.508Z,15.60
2022-12-14T06:07:09.482Z,17.93
2022-12-14T06:10:22.506Z,20.50
2022-12-14T06:13:22.532Z,21.10
2022-12-14T06:16:47.560Z,22.07
2022-12-14T06:19:50.008Z,19.50
2022-12-14T06:23:14.590Z,17.13
2022-12-14T06:26:26.607Z,15.87
2022-12-14T06:29:39.582Z,19.70
2022-12-14T06:32:39.555Z,16.67
2022-12-14T06:36:06.633Z,14.50
2022-12-14T06:39:20.606Z,18.60
2022-12-14T06:42:32.680Z,23.50
2022-12-14T06:45:32.598Z,18.27
2022-12-14T06:48:44.655Z,19.53
2022-12-14T06:51:57.702Z,19.20
2022-12-14T06:55:22.724Z,19.07
2022-12-14T06:58:35.673Z,19.30
2022-12-14T07:01:59.762Z,13.23
2022-12-14T07:05:11.678Z,19.13
2022-12-14T07:08:23.879Z,14.77
2022-12-14T07:11:40.693Z,15.93
2022-12-14T07:14:53.725Z,19.43
2022-12-14T07:17:54.739Z,15.63
2022-12-14T07:21:21.789Z,18.73
2022-12-14T07:24:33.738Z,18.40
2022-12-14T07:27:58.740Z,15.33
2022-12-14T07:31:10.808Z,19.50
2022-12-14T07:34:34.845Z,15.73
2022-12-14T07:37:34.814Z,15.30
2022-12-14T07:40:58.836Z,14.60
2022-12-14T07:44:12.926Z,15.40
2022-12-14T07:47:24.771Z,16.17
2022-12-14T07:50:24.841Z,17.27
2022-12-14T07:53:36.874Z,14.40
2022-12-14T07:56:48.856Z,17.73
2022-12-14T08:00:14.819Z,17.47
2022-12-14T08:03:30.324Z,15.93
2022-12-14T08:06:41.920Z,17.30
2022-12-14T08:09:54.900Z,15.63
2022-12-14T08:12:54.945Z,18.83
2022-12-14T08:16:23.936Z,19.33
2022-12-14T08:19:35.905Z,18.43
2022-12-14T08:22:48.966Z,15.60
2022-12-14T08:25:48.916Z,15.83
2022-12-14T08:29:01.925Z,17.73
2022-12-14T08:32:14.898Z,20.37
2022-12-14T08:35:26.966Z,16.90
2022-12-14T08:38:39.024Z,17.77
2022-12-14T08:41:51.017Z,19.10
2022-12-14T08:44:51.011Z,20.00
2022-12-14T08:48:15.992Z,17.93
2022-12-14T08:51:28.047Z,19.63
2022-12-14T08:54:41.039Z,16.93
2022-12-14T08:57:40.991Z,19.97
2022-12-14T09:00:53.049Z,19.53
2022-12-14T09:04:07.104Z,21.07
2022-12-14T09:07:19.040Z,18.80
2022-12-14T09:10:20.025Z,17.27
2022-12-14T09:13:32.429Z,22.03
2022-12-14T09:16:44.143Z,17.67
2022-12-14T09:20:11.094Z,15.80
2022-12-14T09:23:12.049Z,17.00
2022-12-14T09:26:36.244Z,15.10
2022-12-14T09:29:36.088Z,16.57
2022-12-14T09:32:50.804Z,20.40
2022-12-14T09:36:02.154Z,13.77
2022-12-14T09:39:26.209Z,14.37
2022-12-14T09:42:42.208Z,19.47
2022-12-14T09:46:06.207Z,15.03
2022-12-14T09:49:18.161Z,16.13
2022-12-14T09:52:44.196Z,14.97
2022-12-14T09:55:56.342Z,13.30
2022-12-14T09:59:21.199Z,16.20
2022-12-14T10:02:40.338Z,13.30
2022-12-14T10:06:16.298Z,17.47
2022-12-14T10:12:32.534Z,14.33
2022-12-14T10:15:40.293Z,13.47
2022-12-14T10:19:10.969Z,12.00
2022-12-14T10:22:22.266Z,15.10
2022-12-14T10:25:46.466Z,14.70
2022-12-14T10:29:03.331Z,16.40
2022-12-14T10:32:31.341Z,13.17
2022-12-14T10:35:43.344Z,13.13
2022-12-14T10:39:07.330Z,14.03
2022-12-14T10:42:21.303Z,19.13
2022-12-14T10:45:51.467Z,12.80
2022-12-14T10:49:04.338Z,13.77
2022-12-14T10:52:32.418Z,15.30
2022-12-14T10:55:44.436Z,15.27
2022-12-14T10:58:56.454Z,14.00
2022-12-14T11:02:10.569Z,16.43
2022-12-14T11:05:37.569Z,14.60
2022-12-14T11:09:01.522Z,12.90
2022-12-14T11:12:29.428Z,13.63
2022-12-14T11:15:54.443Z,12.80
2022-12-14T11:19:23.459Z,13.40
2022-12-14T11:22:35.458Z,16.93
2022-12-14T11:26:03.500Z,13.27
2022-12-14T11:29:18.537Z,12.47
2022-12-14T11:32:44.548Z,14.20
2022-12-14T11:35:58.479Z,13.27
2022-12-14T11:39:22.539Z,10.80
2022-12-14T11:42:38.613Z,12.70
2022-12-14T11:45:51.607Z,11.13
2022-12-14T11:49:03.578Z,14.53
2022-12-14T11:52:30.544Z,12.83
2022-12-14T11:55:42.650Z,14.47
2022-12-14T11:59:10.531Z,11.97
2022-12-14T12:02:30.657Z,14.47
2022-12-14T12:05:55.576Z,16.47
2022-12-14T12:09:21.661Z,11.60
2022-12-14T12:12:52.124Z,15.67
2022-12-14T12:15:58.680Z,15.57
2022-12-14T12:19:22.600Z,14.27
2022-12-14T12:22:37.729Z,14.43
2022-12-14T12:25:52.905Z,14.53
2022-12-14T12:29:04.666Z,10.83
2022-12-14T12:32:30.633Z,13.97
2022-12-14T12:35:42.684Z,13.20
2022-12-14T12:39:11.691Z,13.90
2022-12-14T12:42:25.668Z,14.27
2022-12-14T12:45:50.723Z,13.77
2022-12-14T12:49:02.755Z,13.63
2022-12-14T12:52:26.711Z,12.90
2022-12-14T12:55:38.738Z,15.27
2022-12-14T12:59:04.749Z,17.20
2022-12-14T13:02:16.964Z,14.93
2022-12-14T13:05:46.573Z,13.17
2022-12-14T13:08:53.828Z,12.90
2022-12-14T13:12:17.757Z,14.57
2022-12-14T13:18:57.664Z,16.20
2022-12-14T13:22:05.177Z,16.70
2022-12-14T13:25:13.923Z,11.33
2022-12-14T13:28:45.889Z,13.10
2022-12-14T13:31:58.926Z,14.50
2022-12-14T13:35:24.909Z,14.70
2022-12-14T13:38:54.954Z,15.33
2022-12-14T13:42:18.924Z,13.30
2022-12-14T13:45:38.944Z,24.17
2022-12-14T13:49:06.059Z,19.60
2022-12-14T13:52:19.995Z,18.80
2022-12-14T13:55:45.964Z,15.17
2022-12-14T13:58:58.034Z,15.40
2022-12-14T14:02:23.032Z,20.40
2022-12-14T14:06:03.034Z,17.20
2022-12-14T14:09:19.966Z,18.10
2022-12-14T14:13:02.973Z,16.17
2022-12-14T14:16:31.335Z,14.20
2022-12-14T14:19:42.082Z,12.43
2022-12-14T14:22:54.061Z,16.13
2022-12-14T14:26:20.095Z,14.53
2022-12-14T14:29:46.091Z,14.30
2022-12-14T14:33:19.866Z,11.90
2022-12-14T14:36:00.075Z,13.33
2022-12-14T14:39:54.589Z,9.37
2022-12-14T14:42:42.319Z,12.13
2022-12-14T14:46:10.177Z,16.00
2022-12-14T14:49:25.121Z,12.73
2022-12-14T14:52:55.112Z,10.70
2022-12-14T14:56:14.144Z,10.17
2022-12-14T14:59:55.122Z,10.87
2022-12-14T15:03:09.130Z,10.57
2022-12-14T15:06:40.143Z,9.60
2022-12-14T15:09:52.134Z,9.47
2022-12-14T15:13:20.220Z,16.30
2022-12-14T15:16:41.281Z,12.43
2022-12-14T15:20:10.213Z,10.87
2022-12-14T15:23:10.244Z,9.80
2022-12-14T15:26:35.253Z,9.73
2022-12-14T15:29:50.183Z,7.73
2022-12-14T15:33:16.215Z,13.97
2022-12-14T15:36:28.338Z,14.73
2022-12-14T15:39:53.299Z,11.00
2022-12-14T15:43:09.252Z,10.27
2022-12-14T15:46:36.247Z,8.87
2022-12-14T15:49:59.237Z,12.43
2022-12-14T15:53:17.254Z,10.00
2022-12-14T15:56:30.384Z,8.20
2022-12-14T15:59:54.316Z,8.63
2022-12-14T16:03:18.356Z,9.57
2022-12-14T16:06:32.343Z,11.60
2022-12-14T16:09:57.352Z,12.53
2022-12-14T16:13:09.397Z,10.97
2022-12-14T16:16:33.420Z,7.60
2022-12-14T16:20:02.495Z,8.93
2022-12-14T16:23:23.424Z,10.13
2022-12-14T16:26:43.339Z,9.07
2022-12-14T16:29:55.396Z,10.33
2022-12-14T16:33:07.433Z,10.17
2022-12-14T16:36:31.423Z,11.37
2022-12-14T16:39:45.458Z,9.03
2022-12-14T16:43:02.413Z,10.00
2022-12-14T16:46:21.501Z,8.93
2022-12-14T16:49:47.522Z,10.87
2022-12-14T16:52:59.515Z,11.93
2022-12-14T16:56:25.509Z,9.23
2022-12-14T16:59:47.541Z,10.00
2022-12-14T17:03:17.537Z,10.37
2022-12-14T17:06:29.574Z,11.03
2022-12-14T17:09:53.578Z,11.17
2022-12-14T17:13:07.498Z,8.20
2022-12-14T17:16:33.546Z,9.90
2022-12-14T17:19:57.612Z,8.47
2022-12-14T17:23:22.571Z,11.50
2022-12-14T17:26:36.633Z,10.63
2022-12-14T17:30:02.678Z,7.63
2022-12-14T17:33:14.712Z,9.97
2022-12-14T17:36:26.663Z,9.67
2022-12-14T17:39:26.605Z,9.77
2022-12-14T17:42:50.624Z,13.43
2022-12-14T17:46:07.709Z,9.43
2022-12-14T17:49:32.667Z,10.23
2022-12-14T17:52:44.711Z,11.77
2022-12-14T17:56:08.683Z,10.77
2022-12-14T17:59:08.773Z,11.43
2022-12-14T18:02:36.870Z,10.40
2022-12-14T18:06:01.666Z,10.87
2022-12-14T18:09:01.686Z,11.43
2022-12-14T18:12:23.132Z,10.50
2022-12-14T18:15:13.699Z,11.23
2022-12-14T18:18:39.771Z,10.23
2022-12-14T18:21:51.782Z,9.93
2022-12-14T18:25:03.825Z,10.23
2022-12-14T18:28:06.814Z,10.83
2022-12-14T18:31:31.015Z,12.80
2022-12-14T18:34:44.795Z,14.73
2022-12-14T18:37:56.895Z,13.33
2022-12-14T18:41:11.839Z,9.07
2022-12-14T18:44:23.834Z,12.50
2022-12-14T18:47:41.209Z,9.23
2022-12-14T18:50:50.178Z,13.93
2022-12-14T18:53:49.849Z,10.83
2022-12-14T18:57:01.931Z,14.40
2022-12-14T19:00:01.864Z,12.13
2022-12-14T19:03:25.948Z,11.63
2022-12-14T19:06:44.840Z,10.67
2022-12-14T19:09:56.130Z,13.63
2022-12-14T19:13:07.897Z,14.43
2022-12-14T19:16:21.046Z,11.90
2022-12-14T19:19:23.506Z,13.47
2022-12-14T19:22:50.980Z,10.60
2022-12-14T19:25:51.234Z,10.30
2022-12-14T19:29:05.969Z,10.40
2022-12-14T19:32:06.193Z,9.73
2022-12-14T19:35:30.135Z,11.17
2022-12-14T19:38:44.015Z,14.90
2022-12-14T19:41:55.944Z,9.83
2022-12-14T19:44:56.045Z,11.67
2022-12-14T19:48:13.082Z,12.60
2022-12-14T19:51:09.025Z,12.30
2022-12-14T19:54:36.050Z,11.27
2022-12-14T19:57:37.012Z,11.53
2022-12-14T20:00:49.066Z,9.67
2022-12-14T20:04:02.101Z,10.97
2022-12-14T20:07:14.021Z,15.73
2022-12-14T20:10:40.130Z,11.47
2022-12-14T20:13:58.002Z,15.80
2022-12-14T20:17:05.178Z,12.77
2022-12-14T20:20:06.066Z,12.67
2022-12-14T20:23:18.144Z,13.20
2022-12-14T20:26:32.164Z,10.57
2022-12-14T20:29:57.223Z,14.80
2022-12-14T20:32:58.109Z,10.07
2022-12-14T20:36:25.207Z,14.60
2022-12-14T20:39:25.150Z,9.63
2022-12-14T20:42:52.178Z,9.07
2022-12-14T20:46:04.248Z,10.80
2022-12-14T20:49:28.201Z,9.07
2022-12-14T20:52:31.248Z,9.97
2022-12-14T20:55:43.225Z,12.03
2022-12-14T20:58:57.245Z,9.33
2022-12-14T21:02:09.528Z,14.00
2022-12-14T21:05:09.300Z,11.10
2022-12-14T21:08:34.359Z,12.00
2022-12-14T21:11:40.920Z,11.97
2022-12-14T21:15:07.343Z,11.13
2022-12-14T21:18:07.354Z,10.00
2022-12-14T21:21:31.289Z,12.20
2022-12-14T21:27:55.450Z,13.10
2022-12-14T21:31:09.454Z,12.03
2022-12-14T21:34:40.399Z,9.50
2022-12-14T21:37:40.376Z,11.97
2022-12-14T21:40:59.246Z,12.13
2022-12-14T21:44:11.354Z,9.93
2022-12-14T21:47:38.387Z,10.57
2022-12-14T21:50:38.350Z,8.73
2022-12-14T21:53:51.404Z,10.33
2022-12-14T21:57:12.218Z,9.40
2022-12-14T22:00:25.479Z,11.07
2022-12-14T22:03:50.509Z,11.67
2022-12-14T22:07:02.409Z,14.37
2022-12-14T22:10:26.509Z,13.47
2022-12-14T22:13:26.489Z,9.43
2022-12-14T22:16:50.509Z,9.70
2022-12-14T22:20:04.537Z,11.43
2022-12-14T22:23:16.515Z,9.60
2022-12-14T22:26:18.626Z,10.63
2022-12-14T22:29:42.501Z,12.50
2022-12-14T22:32:43.578Z,12.13
2022-12-14T22:36:12.535Z,8.93
2022-12-14T22:39:24.541Z,12.10
2022-12-14T22:42:37.592Z,13.97
2022-12-14T22:45:49.645Z,10.33
2022-12-14T22:49:01.615Z,9.10
2022-12-14T22:52:19.842Z,13.63
2022-12-14T22:55:27.605Z,9.07
2022-12-14T22:58:40.677Z,9.73
2022-12-14T23:02:04.965Z,11.03
2022-12-14T23:05:04.693Z,9.07
2022-12-14T23:08:33.612Z,10.77
2022-12-14T23:11:39.614Z,13.27
2022-12-14T23:14:58.171Z,8.83
2022-12-14T23:18:04.357Z,8.80
2022-12-14T23:21:38.286Z,21.00
2022-12-14T23:24:58.543Z,10.43
2022-12-14T23:28:16.449Z,9.13
2022-12-14T23:31:25.831Z,9.47
2022-12-14T23:34:43.429Z,10.33
2022-12-14T23:37:49.808Z,10.50
2022-12-14T23:41:20.583Z,11.10
2022-12-14T23:44:26.536Z,9.07
2022-12-14T23:47:57.654Z,8.33
2022-12-14T23:51:03.659Z,9.50
2022-12-14T23:54:21.466Z,14.17
2022-12-14T23:57:40.484Z,8.93
